sensor_id;sensor_type;location;lat;lon;timestamp;P1;durP1;ratioP1;P2;durP2;ratioP2
65477;SDS011;53678;39.642;22.430;2023-05-14T00:01:35;9.68;;;6.03;;
65477;SDS011;53678;39.642;22.430;2023-05-14T00:04:04;10.65;;;5.95;;
65477;SDS011;53678;39.642;22.430;2023-05-14T00:06:30;9.98;;;6.75;;
65477;SDS011;53678;39.642;22.430;2023-05-14T00:08:57;12.30;;;6.47;;
65477;SDS011;53678;39.642;22.430;2023-05-14T00:11:24;8.55;;;5.80;;
65477;SDS011;53678;39.642;22.430;2023-05-14T00:13:50;13.95;;;5.75;;
65477;SDS011;53678;39.642;22.430;2023-05-14T00:16:16;8.32;;;5.72;;
65477;SDS011;53678;39.642;22.430;2023-05-14T00:18:41;11.25;;;6.32;;
65477;SDS011;53678;39.642;22.430;2023-05-14T00:21:08;9.00;;;6.45;;
65477;SDS011;53678;39.642;22.430;2023-05-14T00:23:33;9.68;;;5.93;;
65477;SDS011;53678;39.642;22.430;2023-05-14T00:25:59;8.35;;;6.20;;
65477;SDS011;53678;39.642;22.430;2023-05-14T00:28:25;9.55;;;5.90;;
65477;SDS011;53678;39.642;22.430;2023-05-14T00:30:51;8.80;;;6.22;;
65477;SDS011;53678;39.642;22.430;2023-05-14T00:33:16;11.40;;;6.45;;
65477;SDS011;53678;39.642;22.430;2023-05-14T00:35:42;9.50;;;6.30;;
65477;SDS011;53678;39.642;22.430;2023-05-14T00:38:08;10.43;;;6.18;;
65477;SDS011;53678;39.642;22.430;2023-05-14T00:40:34;9.32;;;6.20;;
65477;SDS011;53678;39.642;22.430;2023-05-14T00:43:00;11.30;;;6.25;;
65477;SDS011;53678;39.642;22.430;2023-05-14T00:45:26;10.00;;;6.20;;
65477;SDS011;53678;39.642;22.430;2023-05-14T00:47:52;9.73;;;6.55;;
65477;SDS011;53678;39.642;22.430;2023-05-14T00:50:18;11.82;;;7.85;;
65477;SDS011;53678;39.642;22.430;2023-05-14T00:52:46;14.63;;;8.13;;
65477;SDS011;53678;39.642;22.430;2023-05-14T00:55:12;12.43;;;7.80;;
65477;SDS011;53678;39.642;22.430;2023-05-14T00:57:40;10.77;;;7.82;;
65477;SDS011;53678;39.642;22.430;2023-05-14T01:00:07;17.80;;;7.70;;
65477;SDS011;53678;39.642;22.430;2023-05-14T01:02:33;11.88;;;8.50;;
65477;SDS011;53678;39.642;22.430;2023-05-14T01:04:58;15.20;;;8.15;;
65477;SDS011;53678;39.642;22.430;2023-05-14T01:10:14;13.93;;;8.88;;
65477;SDS011;53678;39.642;22.430;2023-05-14T01:15:29;12.68;;;8.90;;
65477;SDS011;53678;39.642;22.430;2023-05-14T01:18:02;15.13;;;9.35;;
65477;SDS011;53678;39.642;22.430;2023-05-14T01:20:31;14.55;;;9.10;;
65477;SDS011;53678;39.642;22.430;2023-05-14T01:22:57;12.80;;;8.90;;
65477;SDS011;53678;39.642;22.430;2023-05-14T01:25:23;10.40;;;7.65;;
65477;SDS011;53678;39.642;22.430;2023-05-14T01:28:00;13.70;;;8.15;;
65477;SDS011;53678;39.642;22.430;2023-05-14T01:30:46;11.65;;;8.30;;
65477;SDS011;53678;39.642;22.430;2023-05-14T01:33:28;12.13;;;7.60;;
65477;SDS011;53678;39.642;22.430;2023-05-14T01:35:54;9.75;;;7.38;;
65477;SDS011;53678;39.642;22.430;2023-05-14T01:38:20;11.65;;;7.03;;
65477;SDS011;53678;39.642;22.430;2023-05-14T01:40:48;12.38;;;7.32;;
65477;SDS011;53678;39.642;22.430;2023-05-14T01:43:15;10.60;;;6.60;;
65477;SDS011;53678;39.642;22.430;2023-05-14T01:45:42;13.85;;;6.50;;
65477;SDS011;53678;39.642;22.430;2023-05-14T01:48:08;9.23;;;6.18;;
65477;SDS011;53678;39.642;22.430;2023-05-14T01:50:33;12.73;;;6.15;;
65477;SDS011;53678;39.642;22.430;2023-05-14T01:52:59;8.13;;;5.75;;
65477;SDS011;53678;39.642;22.430;2023-05-14T01:55:25;6.82;;;5.60;;
65477;SDS011;53678;39.642;22.430;2023-05-14T01:57:53;13.07;;;7.68;;
65477;SDS011;53678;39.642;22.430;2023-05-14T02:00:19;14.93;;;8.20;;
65477;SDS011;53678;39.642;22.430;2023-05-14T02:02:52;12.57;;;8.38;;
65477;SDS011;53678;39.642;22.430;2023-05-14T02:05:17;11.77;;;8.80;;
65477;SDS011;53678;39.642;22.430;2023-05-14T02:07:43;11.23;;;8.20;;
65477;SDS011;53678;39.642;22.430;2023-05-14T02:10:09;10.00;;;7.82;;
65477;SDS011;53678;39.642;22.430;2023-05-14T02:12:35;11.10;;;7.88;;
65477;SDS011;53678;39.642;22.430;2023-05-14T02:15:01;10.05;;;7.78;;
65477;SDS011;53678;39.642;22.430;2023-05-14T02:17:28;13.20;;;7.82;;
65477;SDS011;53678;39.642;22.430;2023-05-14T02:19:53;11.50;;;7.78;;
65477;SDS011;53678;39.642;22.430;2023-05-14T02:22:20;12.57;;;8.13;;
65477;SDS011;53678;39.642;22.430;2023-05-14T02:24:45;11.10;;;8.10;;
65477;SDS011;53678;39.642;22.430;2023-05-14T02:27:11;10.85;;;7.80;;
65477;SDS011;53678;39.642;22.430;2023-05-14T02:29:37;10.52;;;7.38;;
65477;SDS011;53678;39.642;22.430;2023-05-14T02:32:03;11.10;;;7.07;;
65477;SDS011;53678;39.642;22.430;2023-05-14T02:34:29;11.95;;;7.90;;
65477;SDS011;53678;39.642;22.430;2023-05-14T02:36:55;9.88;;;7.45;;
65477;SDS011;53678;39.642;22.430;2023-05-14T02:39:21;12.07;;;7.53;;
65477;SDS011;53678;39.642;22.430;2023-05-14T02:41:46;8.57;;;6.97;;
65477;SDS011;53678;39.642;22.430;2023-05-14T02:44:12;10.02;;;7.38;;
65477;SDS011;53678;39.642;22.430;2023-05-14T02:46:38;8.38;;;6.28;;
65477;SDS011;53678;39.642;22.430;2023-05-14T02:49:04;10.27;;;6.53;;
65477;SDS011;53678;39.642;22.430;2023-05-14T02:51:30;9.07;;;6.93;;
65477;SDS011;53678;39.642;22.430;2023-05-14T02:53:55;10.20;;;6.68;;
65477;SDS011;53678;39.642;22.430;2023-05-14T02:56:21;11.93;;;7.20;;
65477;SDS011;53678;39.642;22.430;2023-05-14T02:58:47;11.93;;;7.45;;
65477;SDS011;53678;39.642;22.430;2023-05-14T03:01:13;11.73;;;8.55;;
65477;SDS011;53678;39.642;22.430;2023-05-14T03:03:39;12.00;;;7.00;;
65477;SDS011;53678;39.642;22.430;2023-05-14T03:06:05;8.65;;;7.25;;
65477;SDS011;53678;39.642;22.430;2023-05-14T03:08:30;9.02;;;6.70;;
65477;SDS011;53678;39.642;22.430;2023-05-14T03:10:56;11.55;;;7.10;;
65477;SDS011;53678;39.642;22.430;2023-05-14T03:13:22;10.55;;;7.30;;
65477;SDS011;53678;39.642;22.430;2023-05-14T03:15:49;11.95;;;7.82;;
65477;SDS011;53678;39.642;22.430;2023-05-14T03:18:19;10.93;;;7.35;;
65477;SDS011;53678;39.642;22.430;2023-05-14T03:20:45;9.60;;;6.10;;
65477;SDS011;53678;39.642;22.430;2023-05-14T03:23:11;10.38;;;6.50;;
65477;SDS011;53678;39.642;22.430;2023-05-14T03:25:37;12.75;;;6.57;;
65477;SDS011;53678;39.642;22.430;2023-05-14T03:28:02;12.05;;;6.25;;
65477;SDS011;53678;39.642;22.430;2023-05-14T03:30:28;12.65;;;6.30;;
65477;SDS011;53678;39.642;22.430;2023-05-14T03:32:54;7.75;;;6.00;;
65477;SDS011;53678;39.642;22.430;2023-05-14T03:35:20;13.68;;;7.30;;
65477;SDS011;53678;39.642;22.430;2023-05-14T03:37:46;9.00;;;6.80;;
65477;SDS011;53678;39.642;22.430;2023-05-14T03:40:12;11.32;;;6.97;;
65477;SDS011;53678;39.642;22.430;2023-05-14T03:42:37;11.35;;;7.53;;
65477;SDS011;53678;39.642;22.430;2023-05-14T03:45:03;11.20;;;6.32;;
65477;SDS011;53678;39.642;22.430;2023-05-14T03:47:29;8.88;;;6.57;;
65477;SDS011;53678;39.642;22.430;2023-05-14T03:49:56;10.90;;;6.53;;
65477;SDS011;53678;39.642;22.430;2023-05-14T03:52:22;7.43;;;5.47;;
65477;SDS011;53678;39.642;22.430;2023-05-14T03:54:47;11.70;;;6.35;;
65477;SDS011;53678;39.642;22.430;2023-05-14T03:57:14;11.75;;;6.72;;
65477;SDS011;53678;39.642;22.430;2023-05-14T03:59:41;11.85;;;6.45;;
65477;SDS011;53678;39.642;22.430;2023-05-14T04:02:06;9.32;;;5.93;;
65477;SDS011;53678;39.642;22.430;2023-05-14T04:04:32;9.02;;;5.03;;
65477;SDS011;53678;39.642;22.430;2023-05-14T04:06:58;7.43;;;5.35;;
65477;SDS011;53678;39.642;22.430;2023-05-14T04:09:27;8.10;;;5.70;;
65477;SDS011;53678;39.642;22.430;2023-05-14T04:11:52;9.13;;;5.43;;
65477;SDS011;53678;39.642;22.430;2023-05-14T04:14:18;9.30;;;5.55;;
65477;SDS011;53678;39.642;22.430;2023-05-14T04:16:44;9.25;;;5.90;;
65477;SDS011;53678;39.642;22.430;2023-05-14T04:19:09;9.48;;;4.90;;
65477;SDS011;53678;39.642;22.430;2023-05-14T04:21:35;8.95;;;5.53;;
65477;SDS011;53678;39.642;22.430;2023-05-14T04:24:01;12.60;;;6.68;;
65477;SDS011;53678;39.642;22.430;2023-05-14T04:26:26;10.18;;;6.05;;
65477;SDS011;53678;39.642;22.430;2023-05-14T04:28:52;13.50;;;8.00;;
65477;SDS011;53678;39.642;22.430;2023-05-14T04:31:18;9.68;;;6.88;;
65477;SDS011;53678;39.642;22.430;2023-05-14T04:33:43;9.50;;;6.57;;
65477;SDS011;53678;39.642;22.430;2023-05-14T04:36:09;12.35;;;7.55;;
65477;SDS011;53678;39.642;22.430;2023-05-14T04:38:35;15.30;;;7.63;;
65477;SDS011;53678;39.642;22.430;2023-05-14T04:41:00;9.75;;;7.60;;
65477;SDS011;53678;39.642;22.430;2023-05-14T04:43:26;10.05;;;6.70;;
65477;SDS011;53678;39.642;22.430;2023-05-14T04:45:52;9.45;;;6.00;;
65477;SDS011;53678;39.642;22.430;2023-05-14T04:48:17;10.55;;;5.70;;
65477;SDS011;53678;39.642;22.430;2023-05-14T04:50:43;11.35;;;6.53;;
65477;SDS011;53678;39.642;22.430;2023-05-14T04:53:10;9.82;;;6.90;;
65477;SDS011;53678;39.642;22.430;2023-05-14T04:55:36;10.43;;;5.95;;
65477;SDS011;53678;39.642;22.430;2023-05-14T04:58:01;11.05;;;6.25;;
65477;SDS011;53678;39.642;22.430;2023-05-14T05:00:27;11.30;;;6.63;;
65477;SDS011;53678;39.642;22.430;2023-05-14T05:02:53;11.10;;;6.35;;
65477;SDS011;53678;39.642;22.430;2023-05-14T05:05:19;11.43;;;7.15;;
65477;SDS011;53678;39.642;22.430;2023-05-14T05:07:45;12.68;;;7.55;;
65477;SDS011;53678;39.642;22.430;2023-05-14T05:10:11;10.25;;;6.88;;
65477;SDS011;53678;39.642;22.430;2023-05-14T05:12:36;11.77;;;7.47;;
65477;SDS011;53678;39.642;22.430;2023-05-14T05:15:03;12.07;;;6.82;;
65477;SDS011;53678;39.642;22.430;2023-05-14T05:17:29;11.32;;;7.18;;
65477;SDS011;53678;39.642;22.430;2023-05-14T05:19:55;11.00;;;8.20;;
65477;SDS011;53678;39.642;22.430;2023-05-14T05:22:21;11.57;;;7.93;;
65477;SDS011;53678;39.642;22.430;2023-05-14T05:24:48;11.05;;;8.35;;
65477;SDS011;53678;39.642;22.430;2023-05-14T05:27:13;10.50;;;8.13;;
65477;SDS011;53678;39.642;22.430;2023-05-14T05:29:39;11.48;;;7.82;;
65477;SDS011;53678;39.642;22.430;2023-05-14T05:32:05;11.32;;;8.02;;
65477;SDS011;53678;39.642;22.430;2023-05-14T05:34:31;14.07;;;8.32;;
65477;SDS011;53678;39.642;22.430;2023-05-14T05:36:57;12.93;;;9.25;;
65477;SDS011;53678;39.642;22.430;2023-05-14T05:39:23;12.52;;;9.35;;
65477;SDS011;53678;39.642;22.430;2023-05-14T05:41:49;12.40;;;8.73;;
65477;SDS011;53678;39.642;22.430;2023-05-14T05:44:14;11.38;;;8.00;;
65477;SDS011;53678;39.642;22.430;2023-05-14T05:46:40;13.82;;;8.38;;
65477;SDS011;53678;39.642;22.430;2023-05-14T05:49:06;13.77;;;9.02;;
65477;SDS011;53678;39.642;22.430;2023-05-14T05:51:31;12.77;;;8.82;;
65477;SDS011;53678;39.642;22.430;2023-05-14T05:53:57;15.35;;;8.93;;
65477;SDS011;53678;39.642;22.430;2023-05-14T05:56:23;12.25;;;8.68;;
65477;SDS011;53678;39.642;22.430;2023-05-14T05:58:49;14.07;;;9.90;;
65477;SDS011;53678;39.642;22.430;2023-05-14T06:01:15;16.63;;;9.63;;
65477;SDS011;53678;39.642;22.430;2023-05-14T06:03:42;10.43;;;7.68;;
65477;SDS011;53678;39.642;22.430;2023-05-14T06:06:08;11.20;;;6.97;;
65477;SDS011;53678;39.642;22.430;2023-05-14T06:08:33;11.38;;;6.40;;
65477;SDS011;53678;39.642;22.430;2023-05-14T06:10:59;16.63;;;7.22;;
65477;SDS011;53678;39.642;22.430;2023-05-14T06:13:25;10.93;;;8.02;;
65477;SDS011;53678;39.642;22.430;2023-05-14T06:15:50;12.48;;;7.72;;
65477;SDS011;53678;39.642;22.430;2023-05-14T06:18:16;15.48;;;7.93;;
65477;SDS011;53678;39.642;22.430;2023-05-14T06:20:42;12.27;;;7.90;;
65477;SDS011;53678;39.642;22.430;2023-05-14T06:23:08;12.10;;;8.48;;
65477;SDS011;53678;39.642;22.430;2023-05-14T06:25:36;14.43;;;8.35;;
65477;SDS011;53678;39.642;22.430;2023-05-14T06:28:02;13.73;;;8.27;;
65477;SDS011;53678;39.642;22.430;2023-05-14T06:30:27;11.60;;;8.73;;
65477;SDS011;53678;39.642;22.430;2023-05-14T06:32:53;11.85;;;7.18;;
65477;SDS011;53678;39.642;22.430;2023-05-14T06:35:19;15.77;;;6.68;;
65477;SDS011;53678;39.642;22.430;2023-05-14T06:37:45;10.93;;;6.43;;
65477;SDS011;53678;39.642;22.430;2023-05-14T06:40:11;11.02;;;5.93;;
65477;SDS011;53678;39.642;22.430;2023-05-14T06:42:40;21.75;;;7.07;;
65477;SDS011;53678;39.642;22.430;2023-05-14T06:45:06;17.83;;;6.45;;
65477;SDS011;53678;39.642;22.430;2023-05-14T06:47:32;9.43;;;6.45;;
65477;SDS011;53678;39.642;22.430;2023-05-14T06:49:58;10.15;;;6.38;;
65477;SDS011;53678;39.642;22.430;2023-05-14T06:52:25;10.93;;;6.07;;
65477;SDS011;53678;39.642;22.430;2023-05-14T06:54:51;10.00;;;6.47;;
65477;SDS011;53678;39.642;22.430;2023-05-14T06:57:17;8.70;;;5.65;;
65477;SDS011;53678;39.642;22.430;2023-05-14T06:59:44;13.95;;;6.22;;
65477;SDS011;53678;39.642;22.430;2023-05-14T07:02:10;10.10;;;6.10;;
65477;SDS011;53678;39.642;22.430;2023-05-14T07:04:37;8.40;;;5.93;;
65477;SDS011;53678;39.642;22.430;2023-05-14T07:07:03;9.60;;;6.10;;
65477;SDS011;53678;39.642;22.430;2023-05-14T07:09:30;10.48;;;6.32;;
65477;SDS011;53678;39.642;22.430;2023-05-14T07:11:55;10.80;;;7.00;;
65477;SDS011;53678;39.642;22.430;2023-05-14T07:14:21;9.00;;;5.93;;
65477;SDS011;53678;39.642;22.430;2023-05-14T07:16:46;9.75;;;6.63;;
65477;SDS011;53678;39.642;22.430;2023-05-14T07:19:12;9.40;;;6.53;;
65477;SDS011;53678;39.642;22.430;2023-05-14T07:21:38;12.63;;;7.43;;
65477;SDS011;53678;39.642;22.430;2023-05-14T07:24:03;10.88;;;6.80;;
65477;SDS011;53678;39.642;22.430;2023-05-14T07:26:30;9.82;;;5.90;;
65477;SDS011;53678;39.642;22.430;2023-05-14T07:28:56;7.03;;;5.70;;
65477;SDS011;53678;39.642;22.430;2023-05-14T07:31:22;14.93;;;6.35;;
65477;SDS011;53678;39.642;22.430;2023-05-14T07:33:47;8.35;;;6.10;;
65477;SDS011;53678;39.642;22.430;2023-05-14T07:36:13;7.97;;;5.60;;
65477;SDS011;53678;39.642;22.430;2023-05-14T07:38:39;10.35;;;4.97;;
65477;SDS011;53678;39.642;22.430;2023-05-14T07:41:05;6.65;;;5.20;;
65477;SDS011;53678;39.642;22.430;2023-05-14T07:43:30;10.98;;;5.68;;
65477;SDS011;53678;39.642;22.430;2023-05-14T07:45:56;8.80;;;5.00;;
65477;SDS011;53678;39.642;22.430;2023-05-14T07:48:22;7.68;;;4.47;;
65477;SDS011;53678;39.642;22.430;2023-05-14T07:50:48;15.90;;;5.70;;
65477;SDS011;53678;39.642;22.430;2023-05-14T07:53:13;5.40;;;3.78;;
65477;SDS011;53678;39.642;22.430;2023-05-14T07:55:39;7.50;;;4.10;;
65477;SDS011;53678;39.642;22.430;2023-05-14T07:58:06;5.80;;;4.13;;
65477;SDS011;53678;39.642;22.430;2023-05-14T08:00:31;9.93;;;4.40;;
65477;SDS011;53678;39.642;22.430;2023-05-14T08:02:57;6.97;;;3.63;;
65477;SDS011;53678;39.642;22.430;2023-05-14T08:05:23;7.90;;;4.40;;
65477;SDS011;53678;39.642;22.430;2023-05-14T08:07:48;6.53;;;4.53;;
65477;SDS011;53678;39.642;22.430;2023-05-14T08:10:14;9.40;;;4.22;;
65477;SDS011;53678;39.642;22.430;2023-05-14T08:12:40;8.38;;;3.92;;
65477;SDS011;53678;39.642;22.430;2023-05-14T08:15:08;7.60;;;4.15;;
65477;SDS011;53678;39.642;22.430;2023-05-14T08:17:34;5.10;;;4.32;;
65477;SDS011;53678;39.642;22.430;2023-05-14T08:20:00;7.95;;;4.78;;
65477;SDS011;53678;39.642;22.430;2023-05-14T08:22:26;9.80;;;4.70;;
65477;SDS011;53678;39.642;22.430;2023-05-14T08:24:52;12.50;;;5.45;;
65477;SDS011;53678;39.642;22.430;2023-05-14T08:27:17;12.15;;;4.43;;
65477;SDS011;53678;39.642;22.430;2023-05-14T08:29:44;14.60;;;4.10;;
65477;SDS011;53678;39.642;22.430;2023-05-14T08:32:12;8.48;;;3.80;;
65477;SDS011;53678;39.642;22.430;2023-05-14T08:34:38;7.90;;;3.88;;
65477;SDS011;53678;39.642;22.430;2023-05-14T08:37:03;6.25;;;3.42;;
65477;SDS011;53678;39.642;22.430;2023-05-14T08:39:29;4.57;;;3.50;;
65477;SDS011;53678;39.642;22.430;2023-05-14T08:41:55;8.20;;;3.80;;
65477;SDS011;53678;39.642;22.430;2023-05-14T08:44:25;7.47;;;3.60;;
65477;SDS011;53678;39.642;22.430;2023-05-14T08:47:15;6.28;;;3.33;;
65477;SDS011;53678;39.642;22.430;2023-05-14T08:49:43;5.63;;;3.67;;
65477;SDS011;53678;39.642;22.430;2023-05-14T08:52:11;8.90;;;4.22;;
65477;SDS011;53678;39.642;22.430;2023-05-14T08:54:37;6.40;;;3.63;;
65477;SDS011;53678;39.642;22.430;2023-05-14T08:57:04;5.43;;;3.58;;
65477;SDS011;53678;39.642;22.430;2023-05-14T08:59:33;8.95;;;4.43;;
65477;SDS011;53678;39.642;22.430;2023-05-14T09:02:00;11.40;;;3.70;;
65477;SDS011;53678;39.642;22.430;2023-05-14T09:04:27;10.27;;;3.90;;
65477;SDS011;53678;39.642;22.430;2023-05-14T09:06:54;7.72;;;4.53;;
65477;SDS011;53678;39.642;22.430;2023-05-14T09:09:20;6.65;;;3.00;;
65477;SDS011;53678;39.642;22.430;2023-05-14T09:11:47;6.25;;;3.60;;
65477;SDS011;53678;39.642;22.430;2023-05-14T09:14:14;6.50;;;3.33;;
65477;SDS011;53678;39.642;22.430;2023-05-14T09:16:40;7.03;;;3.17;;
65477;SDS011;53678;39.642;22.430;2023-05-14T09:19:08;6.30;;;3.22;;
65477;SDS011;53678;39.642;22.430;2023-05-14T09:21:34;6.82;;;3.83;;
65477;SDS011;53678;39.642;22.430;2023-05-14T09:24:01;13.15;;;4.25;;
65477;SDS011;53678;39.642;22.430;2023-05-14T09:26:30;9.25;;;3.55;;
65477;SDS011;53678;39.642;22.430;2023-05-14T09:28:58;7.20;;;3.42;;
65477;SDS011;53678;39.642;22.430;2023-05-14T09:31:28;10.88;;;3.90;;
65477;SDS011;53678;39.642;22.430;2023-05-14T09:33:54;5.85;;;3.22;;
65477;SDS011;53678;39.642;22.430;2023-05-14T09:36:20;7.55;;;3.22;;
65477;SDS011;53678;39.642;22.430;2023-05-14T09:38:46;4.78;;;3.10;;
65477;SDS011;53678;39.642;22.430;2023-05-14T09:41:11;8.75;;;3.20;;
65477;SDS011;53678;39.642;22.430;2023-05-14T09:43:37;5.63;;;3.50;;
65477;SDS011;53678;39.642;22.430;2023-05-14T09:46:03;5.97;;;3.10;;
65477;SDS011;53678;39.642;22.430;2023-05-14T09:48:31;7.75;;;3.88;;
65477;SDS011;53678;39.642;22.430;2023-05-14T09:50:57;4.95;;;3.47;;
65477;SDS011;53678;39.642;22.430;2023-05-14T09:53:23;6.15;;;3.55;;
65477;SDS011;53678;39.642;22.430;2023-05-14T09:55:49;8.60;;;3.95;;
65477;SDS011;53678;39.642;22.430;2023-05-14T09:58:15;5.75;;;3.28;;
65477;SDS011;53678;39.642;22.430;2023-05-14T10:00:42;4.90;;;3.10;;
65477;SDS011;53678;39.642;22.430;2023-05-14T10:03:10;7.53;;;3.63;;
65477;SDS011;53678;39.642;22.430;2023-05-14T10:05:39;7.25;;;3.75;;
65477;SDS011;53678;39.642;22.430;2023-05-14T10:08:11;10.23;;;3.78;;
65477;SDS011;53678;39.642;22.430;2023-05-14T10:10:38;7.68;;;3.22;;
65477;SDS011;53678;39.642;22.430;2023-05-14T10:13:14;5.70;;;3.10;;
65477;SDS011;53678;39.642;22.430;2023-05-14T10:16:32;8.93;;;2.78;;
65477;SDS011;53678;39.642;22.430;2023-05-14T10:18:35;6.90;;;2.75;;
65477;SDS011;53678;39.642;22.430;2023-05-14T10:21:06;7.47;;;3.83;;
65477;SDS011;53678;39.642;22.430;2023-05-14T10:23:38;9.57;;;5.43;;
65477;SDS011;53678;39.642;22.430;2023-05-14T10:26:05;8.65;;;5.20;;
65477;SDS011;53678;39.642;22.430;2023-05-14T10:28:33;6.32;;;3.65;;
65477;SDS011;53678;39.642;22.430;2023-05-14T10:30:59;6.07;;;3.45;;
65477;SDS011;53678;39.642;22.430;2023-05-14T10:33:25;7.18;;;3.47;;
65477;SDS011;53678;39.642;22.430;2023-05-14T10:35:54;5.20;;;2.70;;
65477;SDS011;53678;39.642;22.430;2023-05-14T10:38:33;8.00;;;2.55;;
65477;SDS011;53678;39.642;22.430;2023-05-14T10:41:01;4.13;;;2.50;;
65477;SDS011;53678;39.642;22.430;2023-05-14T10:43:28;3.70;;;2.35;;
65477;SDS011;53678;39.642;22.430;2023-05-14T10:45:55;3.47;;;2.53;;
65477;SDS011;53678;39.642;22.430;2023-05-14T10:48:22;5.35;;;3.42;;
65477;SDS011;53678;39.642;22.430;2023-05-14T10:50:52;4.40;;;2.60;;
65477;SDS011;53678;39.642;22.430;2023-05-14T10:53:18;9.00;;;3.35;;
65477;SDS011;53678;39.642;22.430;2023-05-14T10:55:54;6.85;;;2.63;;
65477;SDS011;53678;39.642;22.430;2023-05-14T10:58:20;4.57;;;2.80;;
65477;SDS011;53678;39.642;22.430;2023-05-14T11:00:47;10.05;;;3.53;;
65477;SDS011;53678;39.642;22.430;2023-05-14T11:03:14;8.60;;;5.13;;
65477;SDS011;53678;39.642;22.430;2023-05-14T11:05:40;5.95;;;3.50;;
65477;SDS011;53678;39.642;22.430;2023-05-14T11:08:07;5.30;;;3.15;;
65477;SDS011;53678;39.642;22.430;2023-05-14T11:10:33;7.32;;;2.80;;
65477;SDS011;53678;39.642;22.430;2023-05-14T11:12:59;5.15;;;2.72;;
65477;SDS011;53678;39.642;22.430;2023-05-14T11:15:25;6.95;;;2.72;;
65477;SDS011;53678;39.642;22.430;2023-05-14T11:17:52;5.32;;;2.60;;
65477;SDS011;53678;39.642;22.430;2023-05-14T11:20:18;9.30;;;2.85;;
65477;SDS011;53678;39.642;22.430;2023-05-14T11:22:46;4.13;;;2.58;;
65477;SDS011;53678;39.642;22.430;2023-05-14T11:25:13;4.03;;;2.47;;
65477;SDS011;53678;39.642;22.430;2023-05-14T11:27:40;5.75;;;3.60;;
65477;SDS011;53678;39.642;22.430;2023-05-14T11:30:17;7.72;;;3.97;;
65477;SDS011;53678;39.642;22.430;2023-05-14T11:32:44;5.78;;;2.95;;
65477;SDS011;53678;39.642;22.430;2023-05-14T11:35:12;5.60;;;2.80;;
65477;SDS011;53678;39.642;22.430;2023-05-14T11:37:38;5.28;;;3.28;;
65477;SDS011;53678;39.642;22.430;2023-05-14T11:40:06;5.25;;;3.05;;
65477;SDS011;53678;39.642;22.430;2023-05-14T11:42:34;5.40;;;2.88;;
65477;SDS011;53678;39.642;22.430;2023-05-14T11:45:01;8.43;;;5.05;;
65477;SDS011;53678;39.642;22.430;2023-05-14T11:47:27;9.70;;;5.78;;
65477;SDS011;53678;39.642;22.430;2023-05-14T11:49:53;6.57;;;4.40;;
65477;SDS011;53678;39.642;22.430;2023-05-14T11:52:19;6.72;;;3.30;;
65477;SDS011;53678;39.642;22.430;2023-05-14T11:54:46;5.85;;;3.05;;
65477;SDS011;53678;39.642;22.430;2023-05-14T11:57:17;6.32;;;2.80;;
65477;SDS011;53678;39.642;22.430;2023-05-14T11:59:45;10.00;;;4.30;;
65477;SDS011;53678;39.642;22.430;2023-05-14T12:02:12;5.60;;;2.70;;
65477;SDS011;53678;39.642;22.430;2023-05-14T12:04:39;8.93;;;2.90;;
65477;SDS011;53678;39.642;22.430;2023-05-14T12:07:15;6.35;;;2.65;;
65477;SDS011;53678;39.642;22.430;2023-05-14T12:09:44;4.53;;;2.92;;
65477;SDS011;53678;39.642;22.430;2023-05-14T12:14:41;7.47;;;3.20;;
65477;SDS011;53678;39.642;22.430;2023-05-14T12:17:15;4.65;;;3.13;;
65477;SDS011;53678;39.642;22.430;2023-05-14T12:19:44;6.35;;;2.70;;
65477;SDS011;53678;39.642;22.430;2023-05-14T12:22:16;6.00;;;3.45;;
65477;SDS011;53678;39.642;22.430;2023-05-14T12:24:53;8.27;;;4.25;;
65477;SDS011;53678;39.642;22.430;2023-05-14T12:27:23;4.80;;;2.63;;
65477;SDS011;53678;39.642;22.430;2023-05-14T12:29:59;4.82;;;2.70;;
65477;SDS011;53678;39.642;22.430;2023-05-14T12:32:27;5.38;;;3.13;;
65477;SDS011;53678;39.642;22.430;2023-05-14T12:34:55;37.45;;;21.92;;
65477;SDS011;53678;39.642;22.430;2023-05-14T12:37:21;10.93;;;6.60;;
65477;SDS011;53678;39.642;22.430;2023-05-14T12:39:47;4.85;;;3.13;;
65477;SDS011;53678;39.642;22.430;2023-05-14T12:42:13;6.03;;;3.03;;
65477;SDS011;53678;39.642;22.430;2023-05-14T12:44:40;7.18;;;4.60;;
65477;SDS011;53678;39.642;22.430;2023-05-14T12:47:06;4.28;;;2.67;;
65477;SDS011;53678;39.642;22.430;2023-05-14T12:49:32;4.40;;;2.60;;
65477;SDS011;53678;39.642;22.430;2023-05-14T12:51:58;5.28;;;2.63;;
65477;SDS011;53678;39.642;22.430;2023-05-14T12:54:24;3.58;;;2.70;;
65477;SDS011;53678;39.642;22.430;2023-05-14T12:56:50;7.28;;;2.80;;
65477;SDS011;53678;39.642;22.430;2023-05-14T12:59:17;7.40;;;2.47;;
65477;SDS011;53678;39.642;22.430;2023-05-14T13:01:43;4.28;;;2.55;;
65477;SDS011;53678;39.642;22.430;2023-05-14T13:04:09;5.28;;;3.13;;
65477;SDS011;53678;39.642;22.430;2023-05-14T13:06:37;4.28;;;2.33;;
65477;SDS011;53678;39.642;22.430;2023-05-14T13:09:03;7.68;;;4.25;;
65477;SDS011;53678;39.642;22.430;2023-05-14T13:11:30;8.88;;;2.60;;
65477;SDS011;53678;39.642;22.430;2023-05-14T13:13:56;5.68;;;2.58;;
65477;SDS011;53678;39.642;22.430;2023-05-14T13:16:27;6.93;;;2.85;;
65477;SDS011;53678;39.642;22.430;2023-05-14T13:18:53;84.32;;;25.52;;
65477;SDS011;53678;39.642;22.430;2023-05-14T13:21:19;4.10;;;2.08;;
65477;SDS011;53678;39.642;22.430;2023-05-14T13:23:45;4.63;;;2.35;;
65477;SDS011;53678;39.642;22.430;2023-05-14T13:26:14;3.88;;;2.17;;
65477;SDS011;53678;39.642;22.430;2023-05-14T13:28:40;5.45;;;2.38;;
65477;SDS011;53678;39.642;22.430;2023-05-14T13:31:07;4.00;;;2.28;;
65477;SDS011;53678;39.642;22.430;2023-05-14T13:33:39;4.97;;;2.10;;
65477;SDS011;53678;39.642;22.430;2023-05-14T13:36:07;2.40;;;1.75;;
65477;SDS011;53678;39.642;22.430;2023-05-14T13:38:33;5.32;;;2.28;;
65477;SDS011;53678;39.642;22.430;2023-05-14T13:40:59;3.38;;;2.10;;
65477;SDS011;53678;39.642;22.430;2023-05-14T13:43:31;8.50;;;2.67;;
65477;SDS011;53678;39.642;22.430;2023-05-14T13:45:57;5.13;;;2.13;;
65477;SDS011;53678;39.642;22.430;2023-05-14T13:48:24;4.28;;;1.95;;
65477;SDS011;53678;39.642;22.430;2023-05-14T13:50:51;4.00;;;2.15;;
65477;SDS011;53678;39.642;22.430;2023-05-14T13:53:20;6.80;;;2.17;;
65477;SDS011;53678;39.642;22.430;2023-05-14T13:55:47;4.20;;;2.15;;
65477;SDS011;53678;39.642;22.430;2023-05-14T13:58:13;7.47;;;2.60;;
65477;SDS011;53678;39.642;22.430;2023-05-14T14:00:39;7.05;;;2.25;;
65477;SDS011;53678;39.642;22.430;2023-05-14T14:03:05;6.18;;;2.13;;
65477;SDS011;53678;39.642;22.430;2023-05-14T14:05:32;5.40;;;2.22;;
65477;SDS011;53678;39.642;22.430;2023-05-14T14:07:59;4.82;;;2.20;;
65477;SDS011;53678;39.642;22.430;2023-05-14T14:10:25;5.50;;;2.17;;
65477;SDS011;53678;39.642;22.430;2023-05-14T14:12:50;7.97;;;2.13;;
65477;SDS011;53678;39.642;22.430;2023-05-14T14:15:16;2.75;;;1.98;;
65477;SDS011;53678;39.642;22.430;2023-05-14T14:17:42;7.05;;;2.97;;
65477;SDS011;53678;39.642;22.430;2023-05-14T14:20:08;7.55;;;2.38;;
65477;SDS011;53678;39.642;22.430;2023-05-14T14:22:34;6.15;;;2.50;;
65477;SDS011;53678;39.642;22.430;2023-05-14T14:25:00;4.53;;;2.75;;
65477;SDS011;53678;39.642;22.430;2023-05-14T14:27:26;3.92;;;2.17;;
65477;SDS011;53678;39.642;22.430;2023-05-14T14:29:52;3.05;;;1.98;;
65477;SDS011;53678;39.642;22.430;2023-05-14T14:32:17;5.00;;;2.22;;
65477;SDS011;53678;39.642;22.430;2023-05-14T14:34:44;4.20;;;2.15;;